Погода Гайницана неделю

Варминско-Мазурское воеводство, Польша

18 - 24 мая
  • 18мая
    Сегодня
    +10°
    +24°
    Ясно и безоблачно
    ВремяПогодаТемператураВлажностьДавлениеВетер, м/сВероятность осадков
    02:00Ясно и безоблачно+12°C54 %755 мм1.8 м/с2 %
    05:00Ясно и безоблачно+10°C58 %755 мм1.6 м/с2 %
    08:00Ясно и безоблачно+16°C52 %755 мм2.5 м/с2 %
    11:00Ясно и безоблачно+22°C36 %755 мм4.2 м/с2 %
    14:00Ясно и безоблачно+24°C32 %754 мм4.6 м/с2 %
    17:00Ясно и безоблачно+24°C32 %753 мм4.1 м/с2 %
    20:00Ясно и безоблачно+21°C42 %753 мм2.7 м/с2 %
    23:00Ясно и безоблачно+16°C55 %753 мм1.7 м/с2 %
  • 19мая
    Воскресенье
    +10°
    +24°
    Облачно с прояснениями
    ВремяПогодаТемператураВлажностьДавлениеВетер, м/сВероятность осадков
    02:00Ясно и безоблачно+12°C61 %753 мм1.4 м/с2 %
    05:00Ясно и безоблачно+11°C68 %752 мм1.3 м/с2 %
    08:00Ясно и безоблачно+17°C60 %752 мм2.0 м/с2 %
    11:00Практически безоблачно+22°C38 %752 мм3.8 м/с3 %
    14:00Облачно с прояснениями+23°C36 %751 мм3.7 м/с11 %
    17:00Небольшая облачность+22°C33 %750 мм3.1 м/с14 %
    20:00Практически безоблачно+21°C40 %750 мм2.2 м/с13 %
    23:00Ясно и безоблачно+15°C55 %750 мм1.4 м/с4 %
  • 20мая
    Понедельник
    +12°
    +24°
    Облачно с прояснениями
    ВремяПогодаТемператураВлажностьДавлениеВетер, м/сВероятность осадков
    02:00Небольшая облачность+12°C71 %750 мм1.0 м/с5 %
    05:00Небольшая облачность+11°C87 %751 мм0.9 м/с6 %
    08:00Облачно с прояснениями+17°C67 %752 мм1.5 м/с11 %
    11:00Облачно с прояснениями+22°C49 %752 мм2.2 м/с32 %
    14:00Облачно с прояснениями+22°C44 %752 мм2.4 м/с44 %
    17:00Небольшая облачность, возможен дождь с грозой+22°C43 %752 мм2.8 м/с63 %
    20:00Облачно с прояснениями+21°C55 %752 мм2.0 м/с34 %
    23:00Ясно и безоблачно+16°C76 %753 мм1.6 м/с2 %
  • 21мая
    Вторник
    +13°
    +26°
    Практически безоблачно
    ВремяПогодаТемператураВлажностьДавлениеВетер, м/сВероятность осадков
    02:00Облачно с прояснениями+14°C90 %753 мм1.3 м/с3 %
    05:00Практически безоблачно+13°C94 %754 мм1.6 м/с2 %
    08:00Ясно и безоблачно+17°C76 %754 мм2.2 м/с2 %
    11:00Практически безоблачно+22°C55 %754 мм3.5 м/с16 %
    14:00Практически безоблачно+25°C47 %753 мм3.7 м/с21 %
    17:00Ясно и безоблачно+25°C45 %753 мм3.5 м/с36 %
    20:00Ясно и безоблачно+23°C57 %753 мм3.5 м/с11 %
    23:00Ясно и безоблачно+19°C70 %753 мм2.3 м/с2 %
  • 22мая
    Среда
    +14°
    +26°
    Ясно и безоблачно
    ВремяПогодаТемператураВлажностьДавлениеВетер, м/сВероятность осадков
    02:00Ясно и безоблачно+15°C88 %753 мм2.4 м/с2 %
    05:00Ясно и безоблачно+13°C94 %753 мм2.3 м/с3 %
    08:00Ясно и безоблачно+18°C75 %753 мм3.4 м/с2 %
    11:00Ясно и безоблачно+23°C51 %752 мм4.7 м/с11 %
    14:00Ясно и безоблачно+25°C46 %752 мм5.2 м/с17 %
    17:00Практически безоблачно+25°C47 %751 мм4.9 м/с20 %
    20:00Ясно и безоблачно+22°C65 %752 мм4.4 м/с11 %
    23:00Ясно и безоблачно+18°C75 %752 мм3.2 м/с5 %
Мы используем cookies
Соглашаюсь